createdAt,value
2019-03-15T00:00:50.010Z,972.478
2019-03-15T00:02:50.492Z,972.498
2019-03-15T00:04:50.348Z,972.573
2019-03-15T00:06:50.581Z,972.604
2019-03-15T00:08:50.194Z,972.658
2019-03-15T00:10:49.647Z,972.729
2019-03-15T00:12:50.158Z,972.745
2019-03-15T00:14:50.492Z,972.772
2019-03-15T00:16:50.052Z,972.795
2019-03-15T00:18:50.385Z,972.835
2019-03-15T00:20:49.800Z,972.840
2019-03-15T00:22:50.255Z,972.854
2019-03-15T00:24:50.573Z,972.853
2019-03-15T00:26:50.060Z,972.859
2019-03-15T00:28:50.454Z,972.867
2019-03-15T00:30:50.069Z,972.858
2019-03-15T00:32:50.484Z,972.895
2019-03-15T00:34:50.337Z,972.864
2019-03-15T00:36:49.858Z,972.868
2019-03-15T00:38:50.250Z,972.901
2019-03-15T00:40:50.602Z,972.909
2019-03-15T00:42:49.985Z,972.924
2019-03-15T00:44:50.382Z,972.911
2019-03-15T00:46:49.842Z,972.921
2019-03-15T00:48:50.254Z,972.946
2019-03-15T00:50:49.661Z,972.982
2019-03-15T00:52:50.010Z,972.988
2019-03-15T00:54:50.344Z,972.997
2019-03-15T00:56:49.840Z,973.015
2019-03-15T00:58:50.305Z,973.107
2019-03-15T01:00:49.693Z,973.146
2019-03-15T01:02:50.333Z,973.163
2019-03-15T01:04:50.263Z,973.181
2019-03-15T01:06:49.786Z,973.199
2019-03-15T01:08:50.304Z,973.232
2019-03-15T01:10:49.641Z,973.271
2019-03-15T01:12:51.239Z,973.271
2019-03-15T01:14:49.724Z,973.300
2019-03-15T01:16:50.312Z,973.286
2019-03-15T01:18:49.707Z,973.286
2019-03-15T01:20:50.175Z,973.295
2019-03-15T01:22:50.515Z,973.354
2019-03-15T01:24:49.939Z,973.369
2019-03-15T01:26:50.401Z,973.369
2019-03-15T01:28:49.742Z,973.396
2019-03-15T01:30:50.215Z,973.404
2019-03-15T01:32:50.601Z,973.444
2019-03-15T01:34:50.601Z,973.505
2019-03-15T01:36:50.238Z,973.514
2019-03-15T01:38:49.679Z,973.531
2019-03-15T01:40:50.066Z,973.527
2019-03-15T01:42:50.470Z,973.573
2019-03-15T01:44:49.787Z,973.588
2019-03-15T01:46:50.304Z,973.621
2019-03-15T01:48:49.680Z,973.621
2019-03-15T01:50:50.638Z,973.599
2019-03-15T01:52:50.096Z,973.599
2019-03-15T01:54:50.445Z,973.586
2019-03-15T01:56:50.133Z,973.590
2019-03-15T01:58:50.557Z,973.615
2019-03-15T02:00:49.903Z,973.636
2019-03-15T02:02:50.337Z,973.668
2019-03-15T02:04:50.341Z,973.694
2019-03-15T02:06:50.146Z,973.733
2019-03-15T02:08:50.475Z,973.742
2019-03-15T02:10:49.968Z,973.751
2019-03-15T02:12:50.582Z,973.751
2019-03-15T02:14:50.021Z,973.804
2019-03-15T02:16:50.532Z,973.810
2019-03-15T02:18:49.963Z,973.804
2019-03-15T02:20:50.306Z,973.845
2019-03-15T02:22:49.720Z,973.824
2019-03-15T02:24:50.159Z,973.814
2019-03-15T02:26:49.753Z,973.820
2019-03-15T02:28:50.173Z,973.809
2019-03-15T02:30:49.681Z,973.819
2019-03-15T02:32:50.125Z,973.820
2019-03-15T02:34:50.402Z,973.845
2019-03-15T02:36:49.890Z,973.855
2019-03-15T02:38:50.346Z,973.864
2019-03-15T02:40:49.697Z,973.862
2019-03-15T02:42:50.230Z,973.886
2019-03-15T02:44:49.898Z,973.901
2019-03-15T02:46:49.834Z,973.931
2019-03-15T02:48:50.328Z,973.920
2019-03-15T02:50:49.772Z,973.920
2019-03-15T02:52:50.107Z,973.922
2019-03-15T02:54:50.479Z,973.906
2019-03-15T02:56:50.135Z,973.852
2019-03-15T02:58:50.466Z,973.792
2019-03-15T03:00:49.947Z,973.774
2019-03-15T03:02:50.421Z,973.778
2019-03-15T03:04:50.407Z,973.788
2019-03-15T03:06:50.062Z,973.802
2019-03-15T03:08:49.708Z,973.802
2019-03-15T03:10:50.124Z,973.816
2019-03-15T03:12:50.504Z,973.816
2019-03-15T03:14:49.922Z,973.836
2019-03-15T03:16:50.599Z,973.836
2019-03-15T03:18:49.972Z,973.864
2019-03-15T03:20:50.282Z,973.846
2019-03-15T03:22:50.598Z,973.870
2019-03-15T03:24:51.271Z,973.901
2019-03-15T03:26:49.693Z,973.946
2019-03-15T03:28:50.166Z,973.946
2019-03-15T03:30:50.600Z,973.943
2019-03-15T03:32:50.011Z,973.953
2019-03-15T03:34:49.725Z,974.035
2019-03-15T03:36:50.346Z,974.040
2019-03-15T03:38:49.938Z,974.086
2019-03-15T03:40:50.406Z,974.109
2019-03-15T03:42:49.809Z,974.102
2019-03-15T03:44:50.304Z,974.145
2019-03-15T03:46:49.923Z,974.148
2019-03-15T03:48:50.273Z,974.215
2019-03-15T03:50:49.741Z,974.230
2019-03-15T03:52:50.261Z,974.270
2019-03-15T03:54:50.569Z,974.316
2019-03-15T03:56:50.161Z,974.316
2019-03-15T03:58:50.512Z,974.304
2019-03-15T04:00:50.023Z,974.295
2019-03-15T04:02:53.630Z,974.305
2019-03-15T04:04:50.537Z,974.305
2019-03-15T04:06:50.119Z,974.292
2019-03-15T04:08:49.997Z,974.265
2019-03-15T04:10:50.445Z,974.197
2019-03-15T04:12:49.893Z,974.196
2019-03-15T04:14:50.384Z,974.192
2019-03-15T04:16:49.819Z,974.132
2019-03-15T04:18:50.200Z,974.114
2019-03-15T04:20:50.587Z,974.115
2019-03-15T04:22:49.916Z,974.235
2019-03-15T04:24:50.261Z,974.285
2019-03-15T04:26:49.730Z,974.331
2019-03-15T04:28:50.127Z,974.384
2019-03-15T04:30:50.538Z,974.402
2019-03-15T04:32:49.948Z,974.449
2019-03-15T04:34:49.734Z,974.438
2019-03-15T04:36:50.349Z,974.417
2019-03-15T04:38:49.761Z,974.439
2019-03-15T04:40:50.273Z,974.443
2019-03-15T04:42:49.712Z,974.445
2019-03-15T04:44:50.222Z,974.460
2019-03-15T04:46:49.729Z,974.469
2019-03-15T04:48:50.114Z,974.479
2019-03-15T04:50:50.474Z,974.465
2019-03-15T04:52:49.895Z,974.465
2019-03-15T04:54:50.336Z,974.472
2019-03-15T04:56:49.885Z,974.506
2019-03-15T04:58:50.333Z,974.488
2019-03-15T05:00:49.757Z,974.491
2019-03-15T05:02:50.171Z,974.476
2019-03-15T05:04:49.945Z,974.495
2019-03-15T05:06:50.489Z,974.540
2019-03-15T05:08:49.981Z,974.562
2019-03-15T05:10:50.407Z,974.576
2019-03-15T05:12:49.849Z,974.588
2019-03-15T05:14:50.265Z,974.617
2019-03-15T05:16:49.733Z,974.627
2019-03-15T05:18:50.221Z,974.645
2019-03-15T05:20:49.761Z,974.639
2019-03-15T05:22:50.188Z,974.615
2019-03-15T05:24:49.745Z,974.599
2019-03-15T05:26:49.767Z,974.562
2019-03-15T05:28:50.175Z,974.545
2019-03-15T05:30:50.629Z,974.543
2019-03-15T05:32:49.990Z,974.557
2019-03-15T05:34:49.855Z,974.577
2019-03-15T05:36:50.404Z,974.564
2019-03-15T05:38:49.827Z,974.555
2019-03-15T05:40:50.229Z,974.557
2019-03-15T05:42:49.683Z,974.549
2019-03-15T05:44:50.059Z,974.549
2019-03-15T05:46:49.640Z,974.529
2019-03-15T05:48:50.050Z,974.575
2019-03-15T05:50:50.392Z,974.575
2019-03-15T05:52:49.835Z,974.615
2019-03-15T05:54:50.267Z,974.610
2019-03-15T05:56:49.851Z,974.658
2019-03-15T05:58:50.317Z,974.658
2019-03-15T06:00:49.677Z,974.665
2019-03-15T06:02:50.120Z,974.656
2019-03-15T06:04:50.049Z,974.625
2019-03-15T06:06:49.696Z,974.588
2019-03-15T06:08:50.039Z,974.570
2019-03-15T06:10:50.464Z,974.523
2019-03-15T06:12:49.832Z,974.523
2019-03-15T06:14:50.248Z,974.500
2019-03-15T06:16:49.728Z,974.480
2019-03-15T06:18:50.123Z,974.473
2019-03-15T06:20:50.547Z,974.465
2019-03-15T06:22:49.921Z,974.488
2019-03-15T06:24:50.331Z,974.501
2019-03-15T06:26:49.882Z,974.494
2019-03-15T06:28:50.180Z,974.495
2019-03-15T06:30:50.490Z,974.506
2019-03-15T06:32:50.034Z,974.572
2019-03-15T06:34:49.895Z,974.597
2019-03-15T06:36:50.015Z,974.611
2019-03-15T06:38:50.449Z,974.610
2019-03-15T06:40:49.906Z,974.636
2019-03-15T06:42:50.356Z,974.636
2019-03-15T06:44:58.451Z,974.625
2019-03-15T06:46:49.926Z,974.596
2019-03-15T06:48:50.317Z,974.581
2019-03-15T06:50:49.690Z,974.602
2019-03-15T06:52:50.167Z,974.609
2019-03-15T06:54:50.498Z,974.592
2019-03-15T06:56:50.075Z,974.579
2019-03-15T06:58:50.519Z,974.580
2019-03-15T07:00:49.986Z,974.606
2019-03-15T07:02:50.416Z,974.655
2019-03-15T07:04:50.177Z,974.654
2019-03-15T07:06:49.695Z,974.649
2019-03-15T07:08:50.123Z,974.622
2019-03-15T07:10:50.552Z,974.609
2019-03-15T07:12:50.007Z,974.607
2019-03-15T07:14:50.287Z,974.639
2019-03-15T07:16:49.985Z,974.637
2019-03-15T07:18:50.360Z,974.645
2019-03-15T07:20:49.858Z,974.613
2019-03-15T07:22:50.280Z,974.588
2019-03-15T07:24:49.692Z,974.587
2019-03-15T07:26:50.230Z,974.591
2019-03-15T07:28:50.559Z,974.587
2019-03-15T07:30:50.029Z,974.578
2019-03-15T07:32:50.403Z,974.574
2019-03-15T07:34:50.376Z,974.569
2019-03-15T07:36:50.081Z,974.551
2019-03-15T07:38:50.642Z,974.534
2019-03-15T07:40:50.058Z,974.486
2019-03-15T07:42:50.412Z,974.480
2019-03-15T07:44:49.937Z,974.479
2019-03-15T07:46:51.401Z,974.463
2019-03-15T07:48:49.683Z,974.457
2019-03-15T07:50:50.050Z,974.450
2019-03-15T07:52:50.433Z,974.441
2019-03-15T07:54:49.791Z,974.465
2019-03-15T07:56:50.262Z,974.497
2019-03-15T07:58:49.652Z,974.517
2019-03-15T08:00:50.180Z,974.540
2019-03-15T08:02:50.443Z,974.567
2019-03-15T08:04:50.521Z,974.538
2019-03-15T08:06:50.030Z,974.530
2019-03-15T08:08:50.362Z,974.536
2019-03-15T08:10:49.830Z,974.554
2019-03-15T08:12:50.277Z,974.552
2019-03-15T08:14:49.712Z,974.537
2019-03-15T08:16:50.272Z,974.523
2019-03-15T08:18:49.788Z,974.547
2019-03-15T08:20:50.187Z,974.542
2019-03-15T08:22:50.589Z,974.512
2019-03-15T08:24:52.268Z,974.503
2019-03-15T08:26:49.875Z,974.548
2019-03-15T08:28:50.348Z,974.548
2019-03-15T08:30:49.729Z,974.537
2019-03-15T08:32:50.163Z,974.536
2019-03-15T08:34:49.946Z,974.542
2019-03-15T08:36:50.471Z,974.525
2019-03-15T08:38:49.832Z,974.506
2019-03-15T08:40:50.146Z,974.518
2019-03-15T08:42:50.374Z,974.546
2019-03-15T08:44:50.578Z,974.575
2019-03-15T08:46:50.243Z,974.596
2019-03-15T08:48:49.619Z,974.616
2019-03-15T08:50:49.940Z,974.635
2019-03-15T08:52:50.182Z,974.635
2019-03-15T08:54:50.433Z,974.654
2019-03-15T08:56:49.612Z,974.654
2019-03-15T08:58:49.827Z,974.710
2019-03-15T09:00:50.095Z,974.701
2019-03-15T09:02:50.303Z,974.716
2019-03-15T09:04:50.761Z,974.744
2019-03-15T09:06:50.217Z,974.701
2019-03-15T09:08:50.455Z,974.656
2019-03-15T09:10:49.806Z,974.638
2019-03-15T09:12:50.106Z,974.621
2019-03-15T09:14:50.369Z,974.615
2019-03-15T09:16:49.730Z,974.606
2019-03-15T09:18:49.989Z,974.579
2019-03-15T09:20:50.205Z,974.576
2019-03-15T09:22:50.416Z,974.542
2019-03-15T09:24:49.702Z,974.507
2019-03-15T09:26:50.121Z,974.460
2019-03-15T09:28:50.436Z,974.435
2019-03-15T09:30:49.755Z,974.434
2019-03-15T09:32:50.039Z,974.436
2019-03-15T09:34:49.609Z,974.423
2019-03-15T09:36:50.854Z,974.422
2019-03-15T09:38:50.038Z,974.406
2019-03-15T09:40:50.338Z,974.402
2019-03-15T09:42:49.634Z,974.373
2019-03-15T09:44:49.888Z,974.362
2019-03-15T09:46:50.318Z,974.329
2019-03-15T09:48:50.526Z,974.320
2019-03-15T09:50:52.120Z,974.315
2019-03-15T09:52:50.430Z,974.309
2019-03-15T09:54:49.756Z,974.315
2019-03-15T09:56:50.037Z,974.292
2019-03-15T09:58:50.278Z,974.286
2019-03-15T10:00:50.531Z,974.252
2019-03-15T10:02:49.758Z,974.232
2019-03-15T10:04:50.366Z,974.228
2019-03-15T10:06:49.671Z,974.198
2019-03-15T10:08:49.887Z,974.199
2019-03-15T10:10:50.118Z,974.178
2019-03-15T10:12:50.389Z,974.162
2019-03-15T10:14:49.855Z,974.155
2019-03-15T10:16:50.263Z,974.124
2019-03-15T10:18:50.856Z,974.124
2019-03-15T10:20:50.141Z,974.004
2019-03-15T10:23:06.599Z,973.969
2019-03-15T10:24:49.689Z,973.859
2019-03-15T10:26:49.971Z,973.735
2019-03-15T10:28:50.388Z,973.686
2019-03-15T10:30:50.576Z,973.636
2019-03-15T10:32:49.912Z,973.600
2019-03-15T10:34:50.494Z,973.548
2019-03-15T10:36:49.620Z,973.563
2019-03-15T10:38:50.482Z,973.570
2019-03-15T10:40:49.959Z,973.622
2019-03-15T10:42:50.316Z,973.635
2019-03-15T10:44:49.792Z,973.608
2019-03-15T10:46:50.289Z,973.558
2019-03-15T10:48:50.511Z,973.453
2019-03-15T10:50:49.826Z,973.342
2019-03-15T10:52:53.739Z,973.309
2019-03-15T10:54:50.476Z,973.244
2019-03-15T10:56:49.822Z,973.249
2019-03-15T10:58:50.177Z,973.288
2019-03-15T11:00:50.365Z,973.304
2019-03-15T11:02:49.623Z,973.357
2019-03-15T11:04:50.212Z,973.368
2019-03-15T11:06:49.732Z,973.337
2019-03-15T11:08:49.983Z,973.302
2019-03-15T11:10:50.291Z,973.304
2019-03-15T11:12:50.524Z,973.303
2019-03-15T11:14:49.857Z,973.296
2019-03-15T11:16:50.238Z,973.286
2019-03-15T11:18:50.419Z,973.273
2019-03-15T11:20:49.684Z,973.203
2019-03-15T11:22:49.907Z,973.190
2019-03-15T11:24:50.095Z,973.195
2019-03-15T11:26:50.411Z,973.202
2019-03-15T11:28:49.791Z,973.124
2019-03-15T11:30:49.988Z,973.121
2019-03-15T11:32:50.644Z,973.121
2019-03-15T11:34:50.516Z,973.025
2019-03-15T11:36:58.902Z,972.980
2019-03-15T11:38:50.587Z,972.985
2019-03-15T11:40:49.811Z,972.935
2019-03-15T11:42:50.131Z,972.915
2019-03-15T11:44:50.404Z,972.892
2019-03-15T11:46:50.007Z,972.865
2019-03-15T11:48:50.524Z,972.860
2019-03-15T11:50:49.911Z,972.841
2019-03-15T11:52:50.365Z,972.833
2019-03-15T11:54:50.211Z,972.810
2019-03-15T11:56:51.233Z,972.807
2019-03-15T11:58:49.697Z,972.797
2019-03-15T12:00:50.012Z,972.778
2019-03-15T12:02:50.324Z,972.778
2019-03-15T12:04:50.168Z,972.693
2019-03-15T12:06:50.632Z,972.680
2019-03-15T12:08:49.991Z,972.680
2019-03-15T12:10:50.331Z,972.644
2019-03-15T12:12:49.794Z,972.619
2019-03-15T12:14:50.166Z,972.544
2019-03-15T12:16:49.661Z,972.544
2019-03-15T12:18:50.003Z,972.508
2019-03-15T12:20:50.423Z,972.523
2019-03-15T12:22:49.827Z,972.545
2019-03-15T12:24:50.207Z,972.525
2019-03-15T12:26:50.585Z,972.514
2019-03-15T12:28:49.895Z,972.420
2019-03-15T12:30:50.104Z,972.420
2019-03-15T12:32:50.464Z,972.405
2019-03-15T12:34:50.328Z,972.405
2019-03-15T12:36:49.894Z,972.405
2019-03-15T12:38:50.266Z,972.389
2019-03-15T12:40:50.561Z,972.366
2019-03-15T12:42:49.881Z,972.297
2019-03-15T12:44:50.284Z,972.265
2019-03-15T12:46:49.793Z,972.271
2019-03-15T12:48:50.126Z,972.257
2019-03-15T12:50:49.816Z,972.273
2019-03-15T12:52:50.484Z,972.256
2019-03-15T12:54:49.889Z,972.246
2019-03-15T12:56:54.444Z,972.209
2019-03-15T12:58:49.711Z,972.260
2019-03-15T13:00:50.080Z,972.237
2019-03-15T13:02:50.512Z,972.254
2019-03-15T13:04:52.392Z,972.236
2019-03-15T13:06:49.883Z,972.239
2019-03-15T13:08:50.255Z,972.239
2019-03-15T13:10:50.505Z,972.239
2019-03-15T13:12:49.846Z,972.281
2019-03-15T13:14:50.163Z,972.226
2019-03-15T13:16:49.726Z,972.272
2019-03-15T13:18:50.212Z,972.254
2019-03-15T13:20:50.633Z,972.285
2019-03-15T13:22:49.989Z,972.286
2019-03-15T13:24:50.316Z,972.292
2019-03-15T13:26:49.769Z,972.304
2019-03-15T13:28:50.086Z,972.346
2019-03-15T13:30:50.538Z,972.322
2019-03-15T13:32:50.059Z,972.291
2019-03-15T13:34:49.852Z,972.294
2019-03-15T13:36:50.518Z,972.319
2019-03-15T13:38:49.906Z,972.308
2019-03-15T13:40:50.259Z,972.279
2019-03-15T13:42:49.713Z,972.314
2019-03-15T13:44:50.100Z,972.295
2019-03-15T13:46:49.692Z,972.285
2019-03-15T13:48:49.995Z,972.272
2019-03-15T13:50:50.413Z,972.295
2019-03-15T13:52:49.749Z,972.275
2019-03-15T13:54:50.120Z,972.297
2019-03-15T13:56:49.688Z,972.276
2019-03-15T13:58:57.918Z,972.252
2019-03-15T14:00:50.318Z,972.215
2019-03-15T14:02:49.633Z,972.215
2019-03-15T14:04:50.428Z,972.100
2019-03-15T14:06:49.843Z,972.074
2019-03-15T14:08:50.175Z,972.076
2019-03-15T14:10:50.510Z,972.069
2019-03-15T14:12:49.887Z,972.059
2019-03-15T14:14:50.181Z,972.092
2019-03-15T14:16:49.734Z,972.037
2019-03-15T14:18:50.087Z,972.018
2019-03-15T14:20:50.536Z,972.054
2019-03-15T14:22:49.828Z,972.002
2019-03-15T14:24:50.125Z,972.023
2019-03-15T14:26:51.296Z,972.029
2019-03-15T14:28:49.716Z,972.075
2019-03-15T14:30:50.027Z,972.075
2019-03-15T14:32:50.462Z,972.059
2019-03-15T14:34:50.179Z,972.035
2019-03-15T14:36:50.067Z,972.068
2019-03-15T14:38:50.755Z,972.118
2019-03-15T14:40:50.848Z,972.109
2019-03-15T14:42:49.851Z,972.093
2019-03-15T14:44:50.966Z,972.090
2019-03-15T14:46:49.689Z,972.102
2019-03-15T14:48:49.996Z,972.102
2019-03-15T14:50:50.387Z,972.095
2019-03-15T14:52:49.645Z,972.167
2019-03-15T14:54:49.849Z,972.104
2019-03-15T14:56:50.269Z,972.130
2019-03-15T14:58:50.637Z,972.128
2019-03-15T15:00:49.971Z,972.116
2019-03-15T15:02:49.614Z,972.096
2019-03-15T15:04:49.734Z,972.152
2019-03-15T15:06:50.183Z,972.133
2019-03-15T15:08:50.369Z,972.165
2019-03-15T15:10:49.665Z,972.201
2019-03-15T15:12:50.022Z,972.201
2019-03-15T15:14:50.205Z,972.071
2019-03-15T15:16:49.651Z,972.054
2019-03-15T15:18:49.789Z,972.106
2019-03-15T15:20:50.261Z,972.105
2019-03-15T15:22:49.715Z,972.087
2019-03-15T15:24:50.000Z,972.063
2019-03-15T15:26:50.457Z,972.010
2019-03-15T15:28:49.612Z,971.983
2019-03-15T15:30:49.760Z,971.970
2019-03-15T15:32:49.936Z,972.089
2019-03-15T15:34:50.432Z,972.093
2019-03-15T15:36:49.912Z,972.106
2019-03-15T15:38:50.108Z,972.196
2019-03-15T15:40:50.310Z,972.207
2019-03-15T15:42:49.625Z,972.185
2019-03-15T15:44:49.942Z,972.184
2019-03-15T15:46:50.383Z,972.263
2019-03-15T15:48:50.661Z,972.334
2019-03-15T15:50:49.891Z,972.313
2019-03-15T15:52:50.235Z,972.319
2019-03-15T15:54:50.468Z,972.306
2019-03-15T15:56:51.311Z,972.258
2019-03-15T15:58:50.549Z,972.235
2019-03-15T16:00:49.711Z,972.204
2019-03-15T16:02:49.895Z,972.214
2019-03-15T16:04:50.519Z,972.236
2019-03-15T16:06:49.942Z,972.236
2019-03-15T16:08:50.203Z,972.292
2019-03-15T16:10:50.413Z,972.339
2019-03-15T16:12:49.768Z,972.339
2019-03-15T16:14:49.997Z,972.345
2019-03-15T16:16:50.399Z,972.348
2019-03-15T16:18:49.871Z,972.336
2019-03-15T16:20:50.185Z,972.336
2019-03-15T16:22:50.557Z,972.360
2019-03-15T16:24:49.753Z,972.393
2019-03-15T16:26:50.110Z,972.458
2019-03-15T16:28:50.296Z,972.455
2019-03-15T16:30:50.543Z,972.516
2019-03-15T16:32:49.840Z,972.572
2019-03-15T16:34:50.465Z,972.576
2019-03-15T16:36:49.837Z,972.575
2019-03-15T16:38:50.174Z,972.570
2019-03-15T16:40:50.417Z,972.598
2019-03-15T16:42:50.584Z,972.586
2019-03-15T16:44:50.004Z,972.589
2019-03-15T16:46:50.375Z,972.553
2019-03-15T16:48:49.713Z,972.580
2019-03-15T16:50:52.219Z,972.655
2019-03-15T16:52:50.524Z,972.663
2019-03-15T16:54:49.815Z,972.663
2019-03-15T16:56:50.084Z,972.646
2019-03-15T16:58:50.381Z,972.625
2019-03-15T17:00:49.644Z,972.661
2019-03-15T17:02:49.927Z,972.669
2019-03-15T17:04:49.711Z,972.760
2019-03-15T17:06:50.041Z,972.760
2019-03-15T17:08:50.411Z,972.714
2019-03-15T17:10:49.750Z,972.699
2019-03-15T17:12:50.055Z,972.688
2019-03-15T17:14:50.458Z,972.659
2019-03-15T17:16:50.014Z,972.670
2019-03-15T17:18:50.286Z,972.628
2019-03-15T17:20:50.597Z,972.666
2019-03-15T17:22:49.988Z,972.698
2019-03-15T17:24:50.433Z,972.715
2019-03-15T17:26:51.871Z,972.688
2019-03-15T17:28:59.217Z,972.643
2019-03-15T17:30:49.656Z,972.627
2019-03-15T17:32:49.853Z,972.672
2019-03-15T17:34:50.437Z,972.694
2019-03-15T17:36:49.775Z,972.735
2019-03-15T17:38:50.042Z,972.708
2019-03-15T17:40:50.294Z,972.763
2019-03-15T17:42:50.585Z,972.753
2019-03-15T17:44:49.800Z,972.763
2019-03-15T17:46:50.221Z,972.753
2019-03-15T17:48:50.439Z,972.744
2019-03-15T17:50:49.763Z,972.729
2019-03-15T17:52:49.975Z,972.729
2019-03-15T17:54:50.294Z,972.712
2019-03-15T17:56:49.962Z,972.688
2019-03-15T17:58:50.278Z,972.757
2019-03-15T18:00:50.466Z,972.757
2019-03-15T18:02:49.812Z,972.757
2019-03-15T18:04:50.439Z,972.741
2019-03-15T18:06:50.081Z,972.810
2019-03-15T18:08:50.356Z,972.800
2019-03-15T18:10:50.616Z,972.798
2019-03-15T18:12:49.881Z,972.789
2019-03-15T18:14:50.120Z,972.788
2019-03-15T18:16:50.518Z,972.821
2019-03-15T18:18:49.721Z,972.842
2019-03-15T18:20:49.935Z,972.785
2019-03-15T18:22:50.128Z,972.831
2019-03-15T18:24:50.390Z,972.844
2019-03-15T18:26:49.710Z,972.911
2019-03-15T18:28:49.943Z,972.785
2019-03-15T18:30:50.230Z,972.787
2019-03-15T18:32:50.525Z,972.806
2019-03-15T18:34:50.290Z,972.806
2019-03-15T18:36:49.699Z,972.914
2019-03-15T18:38:49.909Z,972.899
2019-03-15T18:40:50.254Z,972.902
2019-03-15T18:42:50.485Z,972.873
2019-03-15T18:44:49.772Z,972.905
2019-03-15T18:46:50.300Z,972.911
2019-03-15T18:48:50.552Z,972.897
2019-03-15T18:50:49.835Z,972.927
2019-03-15T18:52:50.116Z,972.987
2019-03-15T18:54:50.356Z,973.037
2019-03-15T18:56:49.846Z,973.019
2019-03-15T18:58:50.171Z,973.033
2019-03-15T19:00:49.601Z,973.010
2019-03-15T19:02:49.847Z,973.006
2019-03-15T19:04:50.402Z,973.006
2019-03-15T19:06:49.804Z,973.150
2019-03-15T19:08:49.971Z,973.138
2019-03-15T19:10:50.206Z,973.135
2019-03-15T19:12:50.349Z,973.128
2019-03-15T19:14:49.646Z,973.142
2019-03-15T19:16:50.044Z,973.184
2019-03-15T19:18:50.238Z,973.223
2019-03-15T19:20:50.962Z,973.173
2019-03-15T19:22:49.942Z,973.215
2019-03-15T19:24:50.224Z,973.242
2019-03-15T19:26:50.560Z,973.266
2019-03-15T19:28:49.800Z,973.292
2019-03-15T19:30:50.009Z,973.273
2019-03-15T19:32:50.352Z,973.259
2019-03-15T19:34:50.046Z,973.273
2019-03-15T19:36:50.367Z,973.256
2019-03-15T19:38:49.665Z,973.214
2019-03-15T19:40:49.906Z,973.213
2019-03-15T19:42:50.221Z,973.267
2019-03-15T19:44:50.460Z,973.269
2019-03-15T19:46:49.964Z,973.289
2019-03-15T19:48:50.116Z,973.263
2019-03-15T19:50:50.331Z,973.288
2019-03-15T19:52:49.607Z,973.282
2019-03-15T19:55:01.448Z,973.361
2019-03-15T19:56:50.177Z,973.381
2019-03-15T19:58:50.482Z,973.381
2019-03-15T20:00:49.728Z,973.422
2019-03-15T20:02:50.087Z,973.436
2019-03-15T20:04:49.601Z,973.483
2019-03-15T20:06:50.228Z,973.528
2019-03-15T20:08:50.435Z,973.511
2019-03-15T20:10:49.767Z,973.508
2019-03-15T20:12:50.106Z,973.448
2019-03-15T20:14:50.396Z,973.446
2019-03-15T20:16:49.774Z,973.446
2019-03-15T20:18:50.058Z,973.426
2019-03-15T20:20:50.484Z,973.423
2019-03-15T20:22:49.632Z,973.425
2019-03-15T20:24:49.815Z,973.425
2019-03-15T20:26:50.128Z,973.423
2019-03-15T20:28:50.322Z,973.513
2019-03-15T20:30:52.657Z,973.490
2019-03-15T20:32:49.975Z,973.480
2019-03-15T20:34:50.527Z,973.486
2019-03-15T20:36:49.970Z,973.497
2019-03-15T20:38:50.206Z,973.520
2019-03-15T20:40:50.452Z,973.549
2019-03-15T20:42:49.744Z,973.454
2019-03-15T20:44:50.010Z,973.479
2019-03-15T20:46:50.323Z,973.409
2019-03-15T20:48:49.608Z,973.455
2019-03-15T20:50:49.941Z,973.523
2019-03-15T20:52:50.190Z,973.488
2019-03-15T20:54:50.443Z,973.473
2019-03-15T20:56:49.873Z,973.479
2019-03-15T20:58:50.180Z,973.467
2019-03-15T21:00:50.400Z,973.467
2019-03-15T21:02:49.835Z,973.451
2019-03-15T21:04:49.640Z,973.525
2019-03-15T21:06:50.014Z,973.595
2019-03-15T21:08:50.262Z,973.538
2019-03-15T21:10:52.079Z,973.584
2019-03-15T21:12:50.272Z,973.598
2019-03-15T21:14:50.507Z,973.549
2019-03-15T21:16:49.937Z,973.541
2019-03-15T21:18:50.209Z,973.498
2019-03-15T21:20:50.455Z,973.504
2019-03-15T21:22:49.808Z,973.534
2019-03-15T21:24:50.168Z,973.612
2019-03-15T21:26:49.654Z,973.612
2019-03-15T21:28:49.836Z,973.598
2019-03-15T21:30:50.153Z,973.635
2019-03-15T21:32:50.403Z,973.635
2019-03-15T21:34:49.976Z,973.662
2019-03-15T21:36:50.425Z,973.665
2019-03-15T21:38:49.742Z,973.687
2019-03-15T21:40:50.094Z,973.687
2019-03-15T21:42:50.252Z,973.741
2019-03-15T21:44:50.492Z,973.766
2019-03-15T21:46:49.911Z,973.769
2019-03-15T21:48:50.108Z,973.734
2019-03-15T21:50:50.381Z,973.733
2019-03-15T21:52:49.614Z,973.670
2019-03-15T21:54:49.814Z,973.670
2019-03-15T21:56:50.252Z,973.653
2019-03-15T21:58:50.509Z,973.653
2019-03-15T22:01:03.008Z,973.715
2019-03-15T22:02:49.945Z,973.726
2019-03-15T22:04:50.515Z,973.755
2019-03-15T22:06:49.975Z,973.747
2019-03-15T22:08:50.139Z,973.776
2019-03-15T22:10:50.475Z,973.731
2019-03-15T22:12:49.944Z,973.732
2019-03-15T22:14:50.289Z,973.770
2019-03-15T22:16:49.829Z,973.754
2019-03-15T22:18:50.035Z,973.785
2019-03-15T22:20:50.353Z,973.710
2019-03-15T22:22:50.552Z,973.723
2019-03-15T22:24:49.920Z,973.693
2019-03-15T22:26:50.277Z,973.705
2019-03-15T22:28:50.540Z,973.693
2019-03-15T22:30:49.873Z,973.759
2019-03-15T22:32:50.268Z,973.665
2019-03-15T22:34:49.966Z,973.641
2019-03-15T22:36:50.368Z,973.682
2019-03-15T22:38:49.691Z,973.743
2019-03-15T22:40:49.877Z,973.804
2019-03-15T22:42:50.163Z,973.889
2019-03-15T22:44:50.353Z,973.847
2019-03-15T22:46:49.805Z,973.858
2019-03-15T22:48:50.078Z,973.876
2019-03-15T22:50:50.333Z,973.929
2019-03-15T22:52:49.688Z,973.998
2019-03-15T22:54:49.823Z,973.990
2019-03-15T22:56:50.281Z,974.047
2019-03-15T22:58:50.587Z,973.988
2019-03-15T23:00:49.812Z,974.004
2019-03-15T23:02:50.318Z,973.954
2019-03-15T23:04:50.385Z,973.931
2019-03-15T23:06:49.791Z,973.955
2019-03-15T23:08:50.130Z,974.023
2019-03-15T23:10:50.470Z,973.992
2019-03-15T23:12:49.764Z,973.985
2019-03-15T23:14:50.053Z,973.962
2019-03-15T23:16:50.421Z,973.962
2019-03-15T23:18:49.745Z,973.994
2019-03-15T23:20:49.985Z,973.953
2019-03-15T23:22:50.329Z,973.972
2019-03-15T23:24:50.508Z,973.972
2019-03-15T23:26:49.960Z,973.943
2019-03-15T23:28:50.250Z,973.995
2019-03-15T23:30:50.510Z,974.076
2019-03-15T23:32:49.789Z,974.097
2019-03-15T23:34:50.239Z,974.134
2019-03-15T23:36:49.676Z,974.170
2019-03-15T23:38:49.832Z,974.175
2019-03-15T23:40:50.086Z,974.180
2019-03-15T23:42:50.320Z,974.242
2019-03-15T23:44:50.552Z,974.279
2019-03-15T23:46:49.989Z,974.279
2019-03-15T23:48:50.363Z,974.304
2019-03-15T23:50:50.638Z,974.263
2019-03-15T23:52:49.984Z,974.319
2019-03-15T23:54:50.322Z,974.324
2019-03-15T23:56:49.724Z,974.422
2019-03-15T23:58:50.099Z,974.419
